METAR Data
IDs: Format: Raw Decoded Include TAF

Data at: 0152 UTC 19 Oct 2021

KAWM 190053Z AUTO 00000KT 10SM CLR 13/08 A3012 RMK AO2 SLP200 T01330078
KAWM 182353Z AUTO 21003KT 10SM CLR 15/07 A3012 RMK AO2 SLP201 T01500072 10228 20150 56004
KAWM 182253Z AUTO 00000KT 10SM CLR 18/07 A3013 RMK AO2 SLP201 T01780067
KAWM 182153Z AUTO 22004KT 10SM CLR 21/05 A3013 RMK AO2 SLP201 T02110050
KAWM 182053Z AUTO 15004KT 10SM CLR 22/05 A3014 RMK AO2 SLP203 T02170050 56022
KAWM 181953Z AUTO VRB04KT 10SM CLR 22/04 A3015 RMK AO2 SLP206 T02170039
KAWM 181853Z AUTO 00000KT 10SM CLR 21/04 A3017 RMK AO2 SLP216 T02110039
KAWM 181753Z AUTO 17004KT 10SM CLR 21/04 A3020 RMK AO2 SLP225 6//// T02110039 10211 20056 58016
KAWM 181653Z AUTO VRB06KT 10SM CLR 21/03 A3023 RMK AO2 SLP235 T02060028
KAWM 181553Z AUTO 16004KT 10SM CLR 19/04 A3025 RMK AO2 SLP243 T01940044
KAWM 181453Z AUTO 00000KT 10SM CLR 17/09 A3025 RMK AO2 SLP243 6//// T01720089 51013
KAWM 181353Z AUTO 00000KT 10SM CLR 13/10 A3024 RMK AO2 SLP239 T01280100
KAWM 181253Z AUTO 00000KT 10SM CLR 07/06 A3023 RMK AO2 SLP235 T00670061
KAWM 181246Z AUTO 00000KT 2 1/2SM BR CLR 07/06 A3022 RMK AO2 T00670056
KAWM 181243Z AUTO 00000KT 3/4SM BR CLR 07/06 A3022 RMK AO2 T00670056
KAWM 181226Z AUTO 00000KT 1/4SM FG CLR 06/04 A3022 RMK AO2 T00610044
KAWM 181217Z AUTO 00000KT 1/2SM FG CLR 07/06 A3021 RMK AO2 VIS 1/4V5 T00670056
KAWM 181214Z AUTO 00000KT 1 1/2SM BR CLR 07/06 A3021 RMK AO2 VIS 1/2V5 T00670056
KAWM 181153Z AUTO 00000KT 7SM CLR 07/06 A3021 RMK AO2 SLP231 6//// 7//// T00720056 10083 20061 53011 PNO
KAWM 181123Z AUTO 00000KT 3SM BR CLR 07/06 A3021 RMK AO2 T00720056 PNO
KAWM 181101Z AUTO 00000KT 3/4SM BR CLR 06/04 A3020 RMK AO2 T00610044 PNO $
KAWM 181053Z AUTO 00000KT 1SM BR CLR 07/05 A3020 RMK AO2 SLP226 T00670050 PNO $
KAWM 181049Z AUTO 00000KT 1 3/4SM BR CLR 07/06 A3020 RMK AO2 VIS 3/4V5 PNO $
KAWM 181044Z AUTO 00000KT 6SM BR CLR 06/05 A3020 RMK AO2 T00610050 PNO $
KAWM 181037Z AUTO 00000KT 2SM BR CLR 07/06 A3020 RMK AO2 T00720056 PNO $
KAWM 181027Z AUTO 00000KT 1SM BR VV002 06/05 A3020 RMK AO2 T00610050 PNO $
KAWM 181015Z AUTO 00000KT 1 3/4SM BR CLR 07/06 A3019 RMK AO2 T00670056 PNO $
KAWM 181003Z AUTO 00000KT 10SM CLR 07/05 A3019 RMK AO2 T00670050 PNO $
KAWM 180953Z AUTO 00000KT 2SM BR CLR 07/06 A3018 RMK AO2 SLP220 T00720056 PNO $
KAWM 180932Z AUTO 00000KT 10SM CLR 08/07 A3019 RMK AO2 T00780067 PNO $
KAWM 180915Z AUTO 00000KT 1 1/2SM BR FEW002 07/06 A3018 RMK AO2 VIS 1/2V5 T00720061 PNO $
KAWM 180853Z AUTO 00000KT 10SM FEW002 08/06 A3018 RMK AO2 SLP219 6//// T00780061 56006 PNO $
KAWM 180846Z AUTO 00000KT 4SM BR FEW002 08/06 A3018 RMK AO2 T00780061 PNO $
KAWM 180835Z AUTO 00000KT 1 3/4SM BR FEW002 08/07 A3018 RMK AO2 VIS 3/4V5 T00830067 PNO $
KAWM 180807Z AUTO 00000KT 9SM SCT002 08/07 A3018 RMK AO2 T00830067 PNO $
KAWM 180800Z AUTO 00000KT 2SM BR FEW002 08/07 A3018 RMK AO2 T00830067 PNO $
KAWM 180758Z AUTO 00000KT 1SM BR VV002 08/07 A3018 RMK AO2 T00830067 PNO $
KAWM 180753Z AUTO 00000KT 1/2SM FG VV002 08/07 A3019 RMK AO2 SLP220 T00830067 PNO $
KAWM 180742Z AUTO 00000KT 3/4SM BR VV002 08/06 A3019 RMK AO2 T00780061 PNO $
KAWM 180732Z AUTO 00000KT 1/4SM FG VV001 07/06 A3019 RMK AO2 T00720061 PNO $
KAWM 180725Z AUTO 00000KT 1/2SM FG VV001 08/07 A3019 RMK AO2 T00830067 PNO $
KAWM 180720Z AUTO 00000KT 1SM BR VV001 08/07 A3019 RMK AO2 VIS 1/2V5 T00780067 PNO $
KAWM 180653Z AUTO 00000KT 10SM BKN002 08/06 A3020 RMK AO2 SLP224 T00830061 PNO $
KAWM 180625Z AUTO 00000KT 10SM BKN002 08/06 A3020 RMK AO2 T00780061 PNO $
KAWM 180616Z AUTO 00000KT 10SM SCT002 08/06 A3020 RMK AO2 T00780056 PNO $
KAWM 180553Z AUTO 00000KT 10SM CLR 08/06 A3021 RMK AO2 SLP229 6//// T00830056 10144 20083 402220050 58004 PNO $
KAWM 180453Z AUTO 00000KT 10SM CLR 09/06 A3021 RMK AO2 SLP229 T00940056 PNO $
KAWM 180353Z AUTO 00000KT 10SM CLR 09/06 A3023 RMK AO2 SLP234 T00890056 PNO $
KAWM 180253Z AUTO 00000KT 10SM CLR 10/07 A3022 RMK AO2 SLP233 6//// T01000067 51006 PNO $
KAWM 180153Z AUTO 00000KT 10SM CLR 11/06 A3021 RMK AO2 SLP230 T01110056 PNO $
KAWM 180053Z AUTO 00000KT 10SM CLR 12/05 A3021 RMK AO2 SLP230 T01220050 PNO $
KAWM 172353Z AUTO 00000KT 10SM CLR 14/06 A3020 RMK AO2 SLP227 6//// T01440056 10222 20139 55005 PNO $
KAWM 172253Z AUTO 00000KT 10SM CLR 17/04 A3020 RMK AO2 SLP225 T01720039 PNO $
KAWM 172153Z AUTO 35003KT 10SM CLR 22/01 A3020 RMK AO2 SLP226 T02170006 PNO $
KAWM 172053Z AUTO 00000KT 10SM CLR 21/01 A3022 RMK AO2 SLP232 6//// T02110006 56021 PNO $
KAWM 171953Z AUTO 00000KT 10SM CLR 22/01 A3023 RMK AO2 SLP235 T02170006 PNO $
KAWM 171853Z AUTO 02006KT 10SM CLR 22/01 A3025 RMK AO2 SLP242 T02170006 PNO $
KAWM 171753Z AUTO VRB03KT 10SM CLR 21/01 A3028 RMK AO2 SLP253 6//// T02060006 10211 20050 58010 PNO $
KAWM 171653Z AUTO VRB05KT 10SM CLR 20/01 A3030 RMK AO2 SLP259 T02000011 PNO $
KAWM 171553Z AUTO VRB04KT 10SM CLR 19/03 A3031 RMK AO2 SLP263 T01890033 PNO $
KAWM 171453Z AUTO 00000KT 10SM CLR 16/06 A3031 RMK AO2 SLP263 6//// T01610061 51008 PNO $
KAWM 171353Z AUTO 00000KT 10SM CLR 12/07 A3030 RMK AO2 SLP260 T01170067 PNO $